sensor_id;sensor_type;location;lat;lon;timestamp;P1;durP1;ratioP1;P2;durP2;ratioP2
1106;SDS011;540;49.448;8.612;2023-09-07T00:01:05;5.93;;;2.78;;
1106;SDS011;540;49.448;8.612;2023-09-07T00:03:34;6.57;;;2.95;;
1106;SDS011;540;49.448;8.612;2023-09-07T00:06:05;6.35;;;3.15;;
1106;SDS011;540;49.448;8.612;2023-09-07T00:08:33;3.70;;;2.25;;
1106;SDS011;540;49.448;8.612;2023-09-07T00:11:04;4.32;;;2.60;;
1106;SDS011;540;49.448;8.612;2023-09-07T00:13:32;5.57;;;3.20;;
1106;SDS011;540;49.448;8.612;2023-09-07T00:16:00;4.30;;;2.60;;
1106;SDS011;540;49.448;8.612;2023-09-07T00:18:31;3.80;;;2.60;;
1106;SDS011;540;49.448;8.612;2023-09-07T00:21:00;3.17;;;2.45;;
1106;SDS011;540;49.448;8.612;2023-09-07T00:23:28;3.55;;;2.53;;
1106;SDS011;540;49.448;8.612;2023-09-07T00:25:56;6.03;;;3.22;;
1106;SDS011;540;49.448;8.612;2023-09-07T00:28:24;4.43;;;3.03;;
1106;SDS011;540;49.448;8.612;2023-09-07T00:30:52;4.18;;;2.53;;
1106;SDS011;540;49.448;8.612;2023-09-07T00:33:20;4.45;;;3.03;;
1106;SDS011;540;49.448;8.612;2023-09-07T00:35:49;5.63;;;3.28;;
1106;SDS011;540;49.448;8.612;2023-09-07T00:38:17;3.97;;;2.55;;
1106;SDS011;540;49.448;8.612;2023-09-07T00:40:45;5.32;;;2.63;;
1106;SDS011;540;49.448;8.612;2023-09-07T00:43:12;5.60;;;3.33;;
1106;SDS011;540;49.448;8.612;2023-09-07T00:45:41;4.60;;;2.80;;
1106;SDS011;540;49.448;8.612;2023-09-07T00:48:08;4.05;;;3.08;;
1106;SDS011;540;49.448;8.612;2023-09-07T00:50:39;5.03;;;3.08;;
1106;SDS011;540;49.448;8.612;2023-09-07T00:53:08;5.45;;;2.90;;
1106;SDS011;540;49.448;8.612;2023-09-07T00:55:38;3.97;;;2.92;;
1106;SDS011;540;49.448;8.612;2023-09-07T00:58:06;5.05;;;3.20;;
1106;SDS011;540;49.448;8.612;2023-09-07T01:00:35;5.70;;;3.13;;
1106;SDS011;540;49.448;8.612;2023-09-07T01:03:03;3.70;;;2.83;;
1106;SDS011;540;49.448;8.612;2023-09-07T01:05:32;6.45;;;3.17;;
1106;SDS011;540;49.448;8.612;2023-09-07T01:08:10;3.28;;;2.80;;
1106;SDS011;540;49.448;8.612;2023-09-07T01:10:43;4.13;;;2.83;;
1106;SDS011;540;49.448;8.612;2023-09-07T01:13:10;5.30;;;2.80;;
1106;SDS011;540;49.448;8.612;2023-09-07T01:15:49;6.13;;;3.22;;
1106;SDS011;540;49.448;8.612;2023-09-07T01:18:18;4.63;;;2.78;;
1106;SDS011;540;49.448;8.612;2023-09-07T01:20:51;3.78;;;2.55;;
1106;SDS011;540;49.448;8.612;2023-09-07T01:23:21;5.43;;;2.63;;
1106;SDS011;540;49.448;8.612;2023-09-07T01:25:50;5.20;;;3.30;;
1106;SDS011;540;49.448;8.612;2023-09-07T01:28:20;4.20;;;2.60;;
1106;SDS011;540;49.448;8.612;2023-09-07T01:30:48;4.10;;;3.00;;
1106;SDS011;540;49.448;8.612;2023-09-07T01:33:18;4.10;;;2.83;;
1106;SDS011;540;49.448;8.612;2023-09-07T01:35:46;4.63;;;2.75;;
1106;SDS011;540;49.448;8.612;2023-09-07T01:38:14;5.00;;;3.35;;
1106;SDS011;540;49.448;8.612;2023-09-07T01:40:44;6.15;;;2.67;;
1106;SDS011;540;49.448;8.612;2023-09-07T01:43:12;4.75;;;3.35;;
1106;SDS011;540;49.448;8.612;2023-09-07T01:45:40;5.40;;;3.10;;
1106;SDS011;540;49.448;8.612;2023-09-07T01:48:08;4.40;;;2.90;;
1106;SDS011;540;49.448;8.612;2023-09-07T01:50:39;5.13;;;3.78;;
1106;SDS011;540;49.448;8.612;2023-09-07T01:53:07;4.18;;;2.65;;
1106;SDS011;540;49.448;8.612;2023-09-07T01:55:35;5.00;;;3.33;;
1106;SDS011;540;49.448;8.612;2023-09-07T01:58:05;4.22;;;3.30;;
1106;SDS011;540;49.448;8.612;2023-09-07T02:00:35;4.05;;;3.10;;
1106;SDS011;540;49.448;8.612;2023-09-07T02:03:04;4.07;;;3.00;;
1106;SDS011;540;49.448;8.612;2023-09-07T02:05:33;8.30;;;2.97;;
1106;SDS011;540;49.448;8.612;2023-09-07T02:08:01;4.88;;;3.33;;
1106;SDS011;540;49.448;8.612;2023-09-07T02:10:30;5.07;;;3.30;;
1106;SDS011;540;49.448;8.612;2023-09-07T02:12:58;5.60;;;3.45;;
1106;SDS011;540;49.448;8.612;2023-09-07T02:15:27;6.18;;;3.80;;
1106;SDS011;540;49.448;8.612;2023-09-07T02:17:55;3.97;;;3.50;;
1106;SDS011;540;49.448;8.612;2023-09-07T02:20:24;5.50;;;3.70;;
1106;SDS011;540;49.448;8.612;2023-09-07T02:22:52;5.10;;;3.55;;
1106;SDS011;540;49.448;8.612;2023-09-07T02:25:20;4.80;;;3.30;;
1106;SDS011;540;49.448;8.612;2023-09-07T02:27:48;4.47;;;3.53;;
1106;SDS011;540;49.448;8.612;2023-09-07T02:30:16;7.07;;;3.92;;
1106;SDS011;540;49.448;8.612;2023-09-07T02:32:46;8.52;;;3.72;;
1106;SDS011;540;49.448;8.612;2023-09-07T02:35:14;5.20;;;3.58;;
1106;SDS011;540;49.448;8.612;2023-09-07T02:37:42;4.80;;;3.30;;
1106;SDS011;540;49.448;8.612;2023-09-07T02:40:10;5.53;;;3.40;;
1106;SDS011;540;49.448;8.612;2023-09-07T02:42:38;10.85;;;3.95;;
1106;SDS011;540;49.448;8.612;2023-09-07T02:45:07;3.67;;;3.22;;
1106;SDS011;540;49.448;8.612;2023-09-07T02:47:37;4.80;;;3.70;;
1106;SDS011;540;49.448;8.612;2023-09-07T02:50:07;5.03;;;3.65;;
1106;SDS011;540;49.448;8.612;2023-09-07T02:52:36;6.50;;;3.97;;
1106;SDS011;540;49.448;8.612;2023-09-07T02:55:04;6.30;;;4.35;;
1106;SDS011;540;49.448;8.612;2023-09-07T02:57:34;5.68;;;3.80;;
1106;SDS011;540;49.448;8.612;2023-09-07T03:00:03;5.20;;;3.83;;
1106;SDS011;540;49.448;8.612;2023-09-07T03:02:36;10.55;;;4.40;;
1106;SDS011;540;49.448;8.612;2023-09-07T03:05:06;4.60;;;3.58;;
1106;SDS011;540;49.448;8.612;2023-09-07T03:07:35;6.88;;;3.63;;
1106;SDS011;540;49.448;8.612;2023-09-07T03:10:05;5.43;;;3.72;;
1106;SDS011;540;49.448;8.612;2023-09-07T03:12:34;4.90;;;3.45;;
1106;SDS011;540;49.448;8.612;2023-09-07T03:15:02;5.35;;;3.72;;
1106;SDS011;540;49.448;8.612;2023-09-07T03:17:30;6.78;;;3.72;;
1106;SDS011;540;49.448;8.612;2023-09-07T03:19:59;8.27;;;3.38;;
1106;SDS011;540;49.448;8.612;2023-09-07T03:22:30;4.65;;;4.00;;
1106;SDS011;540;49.448;8.612;2023-09-07T03:24:58;9.10;;;4.35;;
1106;SDS011;540;49.448;8.612;2023-09-07T03:27:26;6.55;;;3.72;;
1106;SDS011;540;49.448;8.612;2023-09-07T03:29:54;6.47;;;3.22;;
1106;SDS011;540;49.448;8.612;2023-09-07T03:32:22;6.93;;;3.67;;
1106;SDS011;540;49.448;8.612;2023-09-07T03:34:50;6.45;;;3.85;;
1106;SDS011;540;49.448;8.612;2023-09-07T03:37:18;8.30;;;3.63;;
1106;SDS011;540;49.448;8.612;2023-09-07T03:39:47;4.93;;;3.17;;
1106;SDS011;540;49.448;8.612;2023-09-07T03:42:15;6.88;;;4.03;;
1106;SDS011;540;49.448;8.612;2023-09-07T03:44:44;6.72;;;3.85;;
1106;SDS011;540;49.448;8.612;2023-09-07T03:47:13;6.53;;;3.65;;
1106;SDS011;540;49.448;8.612;2023-09-07T03:49:41;6.95;;;4.60;;
1106;SDS011;540;49.448;8.612;2023-09-07T03:52:10;6.82;;;3.83;;
1106;SDS011;540;49.448;8.612;2023-09-07T03:54:38;7.65;;;4.20;;
1106;SDS011;540;49.448;8.612;2023-09-07T03:57:08;5.60;;;3.90;;
1106;SDS011;540;49.448;8.612;2023-09-07T03:59:36;5.72;;;3.95;;
1106;SDS011;540;49.448;8.612;2023-09-07T04:02:04;5.70;;;4.45;;
1106;SDS011;540;49.448;8.612;2023-09-07T04:04:32;6.95;;;4.22;;
1106;SDS011;540;49.448;8.612;2023-09-07T04:07:00;6.47;;;4.28;;
1106;SDS011;540;49.448;8.612;2023-09-07T04:09:29;7.00;;;4.57;;
1106;SDS011;540;49.448;8.612;2023-09-07T04:11:58;6.63;;;4.60;;
1106;SDS011;540;49.448;8.612;2023-09-07T04:14:28;6.03;;;4.47;;
1106;SDS011;540;49.448;8.612;2023-09-07T04:16:56;6.25;;;4.57;;
1106;SDS011;540;49.448;8.612;2023-09-07T04:19:24;8.52;;;5.22;;
1106;SDS011;540;49.448;8.612;2023-09-07T04:21:52;6.47;;;4.80;;
1106;SDS011;540;49.448;8.612;2023-09-07T04:24:21;9.35;;;4.95;;
1106;SDS011;540;49.448;8.612;2023-09-07T04:26:49;6.68;;;4.90;;
1106;SDS011;540;49.448;8.612;2023-09-07T04:29:17;9.52;;;4.93;;
1106;SDS011;540;49.448;8.612;2023-09-07T04:31:46;10.70;;;5.45;;
1106;SDS011;540;49.448;8.612;2023-09-07T04:34:14;7.75;;;4.53;;
1106;SDS011;540;49.448;8.612;2023-09-07T04:36:42;9.40;;;6.22;;
1106;SDS011;540;49.448;8.612;2023-09-07T04:39:10;10.00;;;5.82;;
1106;SDS011;540;49.448;8.612;2023-09-07T04:41:40;14.35;;;7.38;;
1106;SDS011;540;49.448;8.612;2023-09-07T04:44:08;12.20;;;6.75;;
1106;SDS011;540;49.448;8.612;2023-09-07T04:46:36;11.88;;;6.45;;
1106;SDS011;540;49.448;8.612;2023-09-07T04:49:07;12.93;;;6.22;;
1106;SDS011;540;49.448;8.612;2023-09-07T04:51:35;10.23;;;5.13;;
1106;SDS011;540;49.448;8.612;2023-09-07T04:54:03;10.40;;;5.13;;
1106;SDS011;540;49.448;8.612;2023-09-07T04:56:31;14.27;;;5.57;;
1106;SDS011;540;49.448;8.612;2023-09-07T04:59:00;9.60;;;5.32;;
1106;SDS011;540;49.448;8.612;2023-09-07T05:01:28;9.73;;;5.78;;
1106;SDS011;540;49.448;8.612;2023-09-07T05:03:58;7.90;;;4.97;;
1106;SDS011;540;49.448;8.612;2023-09-07T05:06:29;9.85;;;5.60;;
1106;SDS011;540;49.448;8.612;2023-09-07T05:09:00;8.00;;;5.28;;
1106;SDS011;540;49.448;8.612;2023-09-07T05:11:29;10.18;;;5.35;;
1106;SDS011;540;49.448;8.612;2023-09-07T05:13:57;6.85;;;4.75;;
1106;SDS011;540;49.448;8.612;2023-09-07T05:16:25;6.78;;;5.25;;
1106;SDS011;540;49.448;8.612;2023-09-07T05:18:53;8.63;;;5.07;;
1106;SDS011;540;49.448;8.612;2023-09-07T05:21:22;8.10;;;4.47;;
1106;SDS011;540;49.448;8.612;2023-09-07T05:24:01;8.05;;;4.75;;
1106;SDS011;540;49.448;8.612;2023-09-07T05:26:41;5.75;;;4.50;;
1106;SDS011;540;49.448;8.612;2023-09-07T05:29:10;10.00;;;5.05;;
1106;SDS011;540;49.448;8.612;2023-09-07T05:31:51;7.90;;;4.88;;
1106;SDS011;540;49.448;8.612;2023-09-07T05:34:37;10.77;;;4.75;;
1106;SDS011;540;49.448;8.612;2023-09-07T05:37:05;8.95;;;5.30;;
1106;SDS011;540;49.448;8.612;2023-09-07T05:39:35;9.57;;;5.53;;
1106;SDS011;540;49.448;8.612;2023-09-07T05:45:14;11.32;;;5.82;;
1106;SDS011;540;49.448;8.612;2023-09-07T05:47:43;10.82;;;5.00;;
1106;SDS011;540;49.448;8.612;2023-09-07T05:50:11;10.10;;;5.70;;
1106;SDS011;540;49.448;8.612;2023-09-07T05:52:39;13.70;;;5.60;;
1106;SDS011;540;49.448;8.612;2023-09-07T05:55:09;12.88;;;5.57;;
1106;SDS011;540;49.448;8.612;2023-09-07T05:57:37;10.30;;;5.28;;
1106;SDS011;540;49.448;8.612;2023-09-07T06:00:06;8.65;;;4.68;;
1106;SDS011;540;49.448;8.612;2023-09-07T06:02:39;8.77;;;5.28;;
1106;SDS011;540;49.448;8.612;2023-09-07T06:05:22;8.88;;;5.20;;
1106;SDS011;540;49.448;8.612;2023-09-07T06:07:50;6.30;;;4.38;;
1106;SDS011;540;49.448;8.612;2023-09-07T06:10:20;8.93;;;4.55;;
1106;SDS011;540;49.448;8.612;2023-09-07T06:12:48;8.55;;;4.80;;
1106;SDS011;540;49.448;8.612;2023-09-07T06:15:17;11.68;;;4.72;;
1106;SDS011;540;49.448;8.612;2023-09-07T06:17:45;6.80;;;4.82;;
1106;SDS011;540;49.448;8.612;2023-09-07T06:20:13;5.57;;;4.50;;
1106;SDS011;540;49.448;8.612;2023-09-07T06:22:41;6.82;;;4.50;;
1106;SDS011;540;49.448;8.612;2023-09-07T06:25:11;8.07;;;4.70;;
1106;SDS011;540;49.448;8.612;2023-09-07T06:27:41;8.23;;;4.47;;
1106;SDS011;540;49.448;8.612;2023-09-07T06:30:10;9.05;;;4.47;;
1106;SDS011;540;49.448;8.612;2023-09-07T06:32:38;8.23;;;5.22;;
1106;SDS011;540;49.448;8.612;2023-09-07T06:35:10;8.75;;;4.68;;
1106;SDS011;540;49.448;8.612;2023-09-07T06:37:38;6.97;;;4.50;;
1106;SDS011;540;49.448;8.612;2023-09-07T06:40:10;9.38;;;5.35;;
1106;SDS011;540;49.448;8.612;2023-09-07T06:42:39;7.85;;;5.55;;
1106;SDS011;540;49.448;8.612;2023-09-07T06:45:09;9.23;;;5.15;;
1106;SDS011;540;49.448;8.612;2023-09-07T06:47:37;9.75;;;4.78;;
1106;SDS011;540;49.448;8.612;2023-09-07T06:50:06;8.27;;;4.50;;
1106;SDS011;540;49.448;8.612;2023-09-07T06:52:35;11.98;;;5.85;;
1106;SDS011;540;49.448;8.612;2023-09-07T06:55:03;9.55;;;5.30;;
1106;SDS011;540;49.448;8.612;2023-09-07T06:57:32;10.52;;;8.15;;
1106;SDS011;540;49.448;8.612;2023-09-07T07:00:03;11.23;;;7.50;;
1106;SDS011;540;49.448;8.612;2023-09-07T07:02:33;9.25;;;4.47;;
1106;SDS011;540;49.448;8.612;2023-09-07T07:05:01;6.30;;;5.07;;
1106;SDS011;540;49.448;8.612;2023-09-07T07:07:30;13.05;;;5.78;;
1106;SDS011;540;49.448;8.612;2023-09-07T07:09:58;5.75;;;3.75;;
1106;SDS011;540;49.448;8.612;2023-09-07T07:12:26;5.53;;;4.07;;
1106;SDS011;540;49.448;8.612;2023-09-07T07:14:55;6.10;;;4.10;;
1106;SDS011;540;49.448;8.612;2023-09-07T07:17:25;7.47;;;4.25;;
1106;SDS011;540;49.448;8.612;2023-09-07T07:19:53;5.72;;;3.83;;
1106;SDS011;540;49.448;8.612;2023-09-07T07:22:22;5.93;;;4.05;;
1106;SDS011;540;49.448;8.612;2023-09-07T07:24:50;4.03;;;3.30;;
1106;SDS011;540;49.448;8.612;2023-09-07T07:27:18;4.07;;;2.90;;
1106;SDS011;540;49.448;8.612;2023-09-07T07:29:47;3.78;;;3.25;;
1106;SDS011;540;49.448;8.612;2023-09-07T07:32:18;3.25;;;2.95;;
1106;SDS011;540;49.448;8.612;2023-09-07T07:34:48;5.93;;;2.72;;
1106;SDS011;540;49.448;8.612;2023-09-07T07:37:16;3.20;;;2.90;;
1106;SDS011;540;49.448;8.612;2023-09-07T07:39:44;4.28;;;2.85;;
1106;SDS011;540;49.448;8.612;2023-09-07T07:42:12;4.90;;;2.90;;
1106;SDS011;540;49.448;8.612;2023-09-07T07:44:41;4.80;;;3.25;;
1106;SDS011;540;49.448;8.612;2023-09-07T07:47:09;5.75;;;3.03;;
1106;SDS011;540;49.448;8.612;2023-09-07T07:49:37;2.92;;;2.50;;
1106;SDS011;540;49.448;8.612;2023-09-07T07:52:06;3.58;;;2.92;;
1106;SDS011;540;49.448;8.612;2023-09-07T07:54:34;2.58;;;2.38;;
1106;SDS011;540;49.448;8.612;2023-09-07T07:57:03;4.22;;;2.70;;
1106;SDS011;540;49.448;8.612;2023-09-07T07:59:33;3.50;;;2.88;;
1106;SDS011;540;49.448;8.612;2023-09-07T08:02:02;3.88;;;2.83;;
1106;SDS011;540;49.448;8.612;2023-09-07T08:04:32;3.75;;;3.20;;
1106;SDS011;540;49.448;8.612;2023-09-07T08:07:02;3.95;;;3.22;;
1106;SDS011;540;49.448;8.612;2023-09-07T08:09:35;4.03;;;2.80;;
1106;SDS011;540;49.448;8.612;2023-09-07T08:12:05;4.35;;;2.70;;
1106;SDS011;540;49.448;8.612;2023-09-07T08:14:34;3.53;;;2.40;;
1106;SDS011;540;49.448;8.612;2023-09-07T08:17:04;5.32;;;2.80;;
1106;SDS011;540;49.448;8.612;2023-09-07T08:19:35;2.72;;;2.53;;
1106;SDS011;540;49.448;8.612;2023-09-07T08:22:05;3.28;;;2.92;;
1106;SDS011;540;49.448;8.612;2023-09-07T08:24:37;3.53;;;3.22;;
1106;SDS011;540;49.448;8.612;2023-09-07T08:27:07;4.53;;;3.25;;
1106;SDS011;540;49.448;8.612;2023-09-07T08:29:38;4.32;;;2.85;;
1106;SDS011;540;49.448;8.612;2023-09-07T08:32:07;4.22;;;3.42;;
1106;SDS011;540;49.448;8.612;2023-09-07T08:34:38;4.40;;;4.00;;
1106;SDS011;540;49.448;8.612;2023-09-07T08:37:07;7.95;;;4.18;;
1106;SDS011;540;49.448;8.612;2023-09-07T08:39:37;2.38;;;2.22;;
1106;SDS011;540;49.448;8.612;2023-09-07T08:42:06;3.90;;;3.20;;
1106;SDS011;540;49.448;8.612;2023-09-07T08:44:36;3.08;;;2.78;;
1106;SDS011;540;49.448;8.612;2023-09-07T08:47:06;6.63;;;3.05;;
1106;SDS011;540;49.448;8.612;2023-09-07T08:49:34;6.28;;;3.25;;
1106;SDS011;540;49.448;8.612;2023-09-07T08:52:09;5.32;;;2.70;;
1106;SDS011;540;49.448;8.612;2023-09-07T08:54:40;4.70;;;2.90;;
1106;SDS011;540;49.448;8.612;2023-09-07T08:57:09;4.90;;;2.72;;
1106;SDS011;540;49.448;8.612;2023-09-07T08:59:38;5.68;;;2.92;;
1106;SDS011;540;49.448;8.612;2023-09-07T09:02:08;4.45;;;2.95;;
1106;SDS011;540;49.448;8.612;2023-09-07T09:04:38;3.45;;;3.10;;
1106;SDS011;540;49.448;8.612;2023-09-07T09:07:06;6.45;;;2.83;;
1106;SDS011;540;49.448;8.612;2023-09-07T09:09:35;3.88;;;2.80;;
1106;SDS011;540;49.448;8.612;2023-09-07T09:12:09;6.50;;;2.83;;
1106;SDS011;540;49.448;8.612;2023-09-07T09:14:42;3.38;;;2.92;;
1106;SDS011;540;49.448;8.612;2023-09-07T09:17:12;3.67;;;3.33;;
1106;SDS011;540;49.448;8.612;2023-09-07T09:19:41;3.28;;;2.97;;
1106;SDS011;540;49.448;8.612;2023-09-07T09:22:09;5.28;;;3.63;;
1106;SDS011;540;49.448;8.612;2023-09-07T09:24:39;4.18;;;2.85;;
1106;SDS011;540;49.448;8.612;2023-09-07T09:27:09;2.78;;;2.58;;
1106;SDS011;540;49.448;8.612;2023-09-07T09:29:37;2.83;;;2.60;;
1106;SDS011;540;49.448;8.612;2023-09-07T09:32:06;3.58;;;3.00;;
1106;SDS011;540;49.448;8.612;2023-09-07T09:34:35;11.77;;;3.30;;
1106;SDS011;540;49.448;8.612;2023-09-07T09:37:04;5.05;;;2.85;;
1106;SDS011;540;49.448;8.612;2023-09-07T09:39:40;3.97;;;3.08;;
1106;SDS011;540;49.448;8.612;2023-09-07T09:42:11;3.20;;;2.85;;
1106;SDS011;540;49.448;8.612;2023-09-07T09:44:49;3.45;;;3.05;;
1106;SDS011;540;49.448;8.612;2023-09-07T09:47:20;3.85;;;3.05;;
1106;SDS011;540;49.448;8.612;2023-09-07T09:49:51;3.28;;;2.92;;
1106;SDS011;540;49.448;8.612;2023-09-07T09:52:20;4.00;;;2.83;;
1106;SDS011;540;49.448;8.612;2023-09-07T09:54:49;5.32;;;3.08;;
1106;SDS011;540;49.448;8.612;2023-09-07T09:57:21;3.28;;;2.90;;
1106;SDS011;540;49.448;8.612;2023-09-07T09:59:49;3.08;;;2.88;;
1106;SDS011;540;49.448;8.612;2023-09-07T10:02:18;5.28;;;3.08;;
1106;SDS011;540;49.448;8.612;2023-09-07T10:04:46;8.70;;;4.18;;
1106;SDS011;540;49.448;8.612;2023-09-07T10:07:15;3.47;;;2.67;;
1106;SDS011;540;49.448;8.612;2023-09-07T10:09:46;3.63;;;3.10;;
1106;SDS011;540;49.448;8.612;2023-09-07T10:12:14;3.05;;;2.85;;
1106;SDS011;540;49.448;8.612;2023-09-07T10:14:45;3.47;;;3.17;;
1106;SDS011;540;49.448;8.612;2023-09-07T10:17:21;3.70;;;3.40;;
1106;SDS011;540;49.448;8.612;2023-09-07T10:20:01;3.25;;;2.95;;
1106;SDS011;540;49.448;8.612;2023-09-07T10:22:31;5.18;;;3.42;;
1106;SDS011;540;49.448;8.612;2023-09-07T10:25:02;3.30;;;2.60;;
1106;SDS011;540;49.448;8.612;2023-09-07T10:27:36;3.50;;;3.00;;
1106;SDS011;540;49.448;8.612;2023-09-07T10:30:10;6.45;;;3.10;;
1106;SDS011;540;49.448;8.612;2023-09-07T10:32:41;3.45;;;3.15;;
1106;SDS011;540;49.448;8.612;2023-09-07T10:35:13;4.22;;;2.90;;
1106;SDS011;540;49.448;8.612;2023-09-07T10:37:44;3.80;;;2.47;;
1106;SDS011;540;49.448;8.612;2023-09-07T10:40:18;2.63;;;2.42;;
1106;SDS011;540;49.448;8.612;2023-09-07T10:42:47;4.28;;;2.60;;
1106;SDS011;540;49.448;8.612;2023-09-07T10:45:17;2.88;;;2.58;;
1106;SDS011;540;49.448;8.612;2023-09-07T10:47:46;2.97;;;2.67;;
1106;SDS011;540;49.448;8.612;2023-09-07T10:50:14;5.05;;;2.35;;
1106;SDS011;540;49.448;8.612;2023-09-07T10:52:43;2.70;;;2.50;;
1106;SDS011;540;49.448;8.612;2023-09-07T10:55:19;3.05;;;2.75;;
1106;SDS011;540;49.448;8.612;2023-09-07T10:57:47;3.42;;;2.80;;
1106;SDS011;540;49.448;8.612;2023-09-07T11:00:16;2.80;;;2.60;;
1106;SDS011;540;49.448;8.612;2023-09-07T11:02:45;4.90;;;2.95;;
1106;SDS011;540;49.448;8.612;2023-09-07T11:05:14;2.67;;;2.47;;
1106;SDS011;540;49.448;8.612;2023-09-07T11:07:42;2.70;;;2.50;;
1106;SDS011;540;49.448;8.612;2023-09-07T11:10:10;3.17;;;2.88;;
1106;SDS011;540;49.448;8.612;2023-09-07T11:12:38;2.80;;;2.60;;
1106;SDS011;540;49.448;8.612;2023-09-07T11:15:08;2.85;;;2.42;;
1106;SDS011;540;49.448;8.612;2023-09-07T11:17:39;2.90;;;2.47;;
1106;SDS011;540;49.448;8.612;2023-09-07T11:20:09;6.18;;;2.67;;
1106;SDS011;540;49.448;8.612;2023-09-07T11:22:37;4.80;;;3.00;;
1106;SDS011;540;49.448;8.612;2023-09-07T11:25:33;3.10;;;2.80;;
1106;SDS011;540;49.448;8.612;2023-09-07T11:28:02;5.20;;;3.15;;
1106;SDS011;540;49.448;8.612;2023-09-07T11:30:31;3.30;;;3.00;;
1106;SDS011;540;49.448;8.612;2023-09-07T11:33:02;2.75;;;2.55;;
1106;SDS011;540;49.448;8.612;2023-09-07T11:35:33;3.05;;;2.75;;
1106;SDS011;540;49.448;8.612;2023-09-07T11:38:02;4.78;;;2.70;;
1106;SDS011;540;49.448;8.612;2023-09-07T11:40:33;2.80;;;2.40;;
1106;SDS011;540;49.448;8.612;2023-09-07T11:43:01;3.10;;;2.60;;
1106;SDS011;540;49.448;8.612;2023-09-07T11:45:30;2.65;;;2.40;;
1106;SDS011;540;49.448;8.612;2023-09-07T11:47:58;2.70;;;2.50;;
1106;SDS011;540;49.448;8.612;2023-09-07T11:50:28;2.70;;;2.50;;
1106;SDS011;540;49.448;8.612;2023-09-07T11:52:57;4.38;;;2.63;;
1106;SDS011;540;49.448;8.612;2023-09-07T11:55:25;3.70;;;3.08;;
1106;SDS011;540;49.448;8.612;2023-09-07T11:57:53;2.90;;;2.70;;
1106;SDS011;540;49.448;8.612;2023-09-07T12:00:37;4.70;;;2.63;;
1106;SDS011;540;49.448;8.612;2023-09-07T12:03:06;2.80;;;2.50;;
1106;SDS011;540;49.448;8.612;2023-09-07T12:05:35;2.92;;;2.60;;
1106;SDS011;540;49.448;8.612;2023-09-07T12:08:06;2.65;;;2.45;;
1106;SDS011;540;49.448;8.612;2023-09-07T12:10:34;3.30;;;3.00;;
1106;SDS011;540;49.448;8.612;2023-09-07T12:13:02;3.03;;;2.65;;
1106;SDS011;540;49.448;8.612;2023-09-07T12:15:31;3.25;;;2.67;;
1106;SDS011;540;49.448;8.612;2023-09-07T12:18:00;2.75;;;2.55;;
1106;SDS011;540;49.448;8.612;2023-09-07T12:20:28;3.47;;;2.63;;
1106;SDS011;540;49.448;8.612;2023-09-07T12:22:58;3.13;;;2.80;;
1106;SDS011;540;49.448;8.612;2023-09-07T12:25:26;3.92;;;2.78;;
1106;SDS011;540;49.448;8.612;2023-09-07T12:27:54;3.10;;;2.75;;
1106;SDS011;540;49.448;8.612;2023-09-07T12:30:22;2.97;;;2.63;;
1106;SDS011;540;49.448;8.612;2023-09-07T12:32:51;4.03;;;2.97;;
1106;SDS011;540;49.448;8.612;2023-09-07T12:35:19;5.05;;;2.78;;
1106;SDS011;540;49.448;8.612;2023-09-07T12:37:47;7.13;;;2.63;;
1106;SDS011;540;49.448;8.612;2023-09-07T12:40:17;2.95;;;2.55;;
1106;SDS011;540;49.448;8.612;2023-09-07T12:42:45;2.33;;;2.13;;
1106;SDS011;540;49.448;8.612;2023-09-07T12:45:14;4.05;;;2.80;;
1106;SDS011;540;49.448;8.612;2023-09-07T12:47:42;2.55;;;2.35;;
1106;SDS011;540;49.448;8.612;2023-09-07T12:50:11;3.53;;;2.50;;
1106;SDS011;540;49.448;8.612;2023-09-07T12:52:40;5.70;;;2.78;;
1106;SDS011;540;49.448;8.612;2023-09-07T12:55:08;4.60;;;2.75;;
1106;SDS011;540;49.448;8.612;2023-09-07T12:57:38;4.60;;;2.92;;
1106;SDS011;540;49.448;8.612;2023-09-07T13:00:07;3.15;;;2.85;;
1106;SDS011;540;49.448;8.612;2023-09-07T13:02:37;2.60;;;2.40;;
1106;SDS011;540;49.448;8.612;2023-09-07T13:05:05;3.22;;;2.70;;
1106;SDS011;540;49.448;8.612;2023-09-07T13:07:34;3.33;;;2.60;;
1106;SDS011;540;49.448;8.612;2023-09-07T13:10:02;2.60;;;2.40;;
1106;SDS011;540;49.448;8.612;2023-09-07T13:12:32;3.13;;;2.72;;
1106;SDS011;540;49.448;8.612;2023-09-07T13:15:01;3.65;;;2.53;;
1106;SDS011;540;49.448;8.612;2023-09-07T13:17:29;3.05;;;2.75;;
1106;SDS011;540;49.448;8.612;2023-09-07T13:19:58;3.15;;;2.63;;
1106;SDS011;540;49.448;8.612;2023-09-07T13:22:26;2.83;;;2.50;;
1106;SDS011;540;49.448;8.612;2023-09-07T13:24:54;3.92;;;2.75;;
1106;SDS011;540;49.448;8.612;2023-09-07T13:27:23;2.85;;;2.65;;
1106;SDS011;540;49.448;8.612;2023-09-07T13:29:52;7.00;;;3.03;;
1106;SDS011;540;49.448;8.612;2023-09-07T13:32:22;4.55;;;2.92;;
1106;SDS011;540;49.448;8.612;2023-09-07T13:34:50;4.72;;;2.63;;
1106;SDS011;540;49.448;8.612;2023-09-07T13:37:18;2.80;;;2.50;;
1106;SDS011;540;49.448;8.612;2023-09-07T13:39:47;5.68;;;2.70;;
1106;SDS011;540;49.448;8.612;2023-09-07T13:42:15;4.05;;;3.55;;
1106;SDS011;540;49.448;8.612;2023-09-07T13:44:43;3.72;;;2.80;;
1106;SDS011;540;49.448;8.612;2023-09-07T13:47:13;6.97;;;2.85;;
1106;SDS011;540;49.448;8.612;2023-09-07T13:49:42;4.57;;;2.83;;
1106;SDS011;540;49.448;8.612;2023-09-07T13:52:11;5.78;;;3.47;;
1106;SDS011;540;49.448;8.612;2023-09-07T13:54:40;3.47;;;2.80;;
1106;SDS011;540;49.448;8.612;2023-09-07T13:57:08;3.28;;;2.63;;
1106;SDS011;540;49.448;8.612;2023-09-07T13:59:37;3.30;;;3.00;;
1106;SDS011;540;49.448;8.612;2023-09-07T14:02:05;4.05;;;2.65;;
1106;SDS011;540;49.448;8.612;2023-09-07T14:04:33;3.55;;;2.63;;
1106;SDS011;540;49.448;8.612;2023-09-07T14:07:02;4.25;;;2.90;;
1106;SDS011;540;49.448;8.612;2023-09-07T14:09:31;5.07;;;2.88;;
1106;SDS011;540;49.448;8.612;2023-09-07T14:11:59;3.15;;;2.80;;
1106;SDS011;540;49.448;8.612;2023-09-07T14:14:27;4.45;;;2.95;;
1106;SDS011;540;49.448;8.612;2023-09-07T14:16:55;3.95;;;3.00;;
1106;SDS011;540;49.448;8.612;2023-09-07T14:19:25;4.72;;;2.72;;
1106;SDS011;540;49.448;8.612;2023-09-07T14:21:56;4.40;;;2.65;;
1106;SDS011;540;49.448;8.612;2023-09-07T14:24:26;3.72;;;3.10;;
1106;SDS011;540;49.448;8.612;2023-09-07T14:26:54;4.05;;;3.20;;
1106;SDS011;540;49.448;8.612;2023-09-07T14:29:22;7.07;;;2.53;;
1106;SDS011;540;49.448;8.612;2023-09-07T14:31:50;6.40;;;3.38;;
1106;SDS011;540;49.448;8.612;2023-09-07T14:34:18;2.63;;;2.40;;
1106;SDS011;540;49.448;8.612;2023-09-07T14:36:46;5.40;;;2.65;;
1106;SDS011;540;49.448;8.612;2023-09-07T14:39:19;4.57;;;2.63;;
1106;SDS011;540;49.448;8.612;2023-09-07T14:41:52;3.03;;;2.72;;
1106;SDS011;540;49.448;8.612;2023-09-07T14:44:20;5.00;;;2.58;;
1106;SDS011;540;49.448;8.612;2023-09-07T14:46:49;3.10;;;2.53;;
1106;SDS011;540;49.448;8.612;2023-09-07T14:49:17;4.53;;;2.58;;
1106;SDS011;540;49.448;8.612;2023-09-07T14:51:47;3.55;;;2.67;;
1106;SDS011;540;49.448;8.612;2023-09-07T14:54:15;5.50;;;3.15;;
1106;SDS011;540;49.448;8.612;2023-09-07T14:56:44;3.78;;;2.85;;
1106;SDS011;540;49.448;8.612;2023-09-07T14:59:13;6.30;;;2.75;;
1106;SDS011;540;49.448;8.612;2023-09-07T15:01:41;5.10;;;2.67;;
1106;SDS011;540;49.448;8.612;2023-09-07T15:04:16;5.10;;;2.73;;
1106;SDS011;540;49.448;8.612;2023-09-07T15:06:44;4.55;;;3.17;;
1106;SDS011;540;49.448;8.612;2023-09-07T15:09:15;3.47;;;3.03;;
1106;SDS011;540;49.448;8.612;2023-09-07T15:14:17;4.60;;;2.50;;
1106;SDS011;540;49.448;8.612;2023-09-07T15:16:46;4.75;;;3.13;;
1106;SDS011;540;49.448;8.612;2023-09-07T15:19:15;4.88;;;3.75;;
1106;SDS011;540;49.448;8.612;2023-09-07T15:21:43;8.23;;;2.80;;
1106;SDS011;540;49.448;8.612;2023-09-07T15:24:11;3.60;;;2.70;;
1106;SDS011;540;49.448;8.612;2023-09-07T15:26:44;4.05;;;3.05;;
1106;SDS011;540;49.448;8.612;2023-09-07T15:29:12;3.50;;;2.70;;
1106;SDS011;540;49.448;8.612;2023-09-07T15:31:42;5.68;;;3.40;;
1106;SDS011;540;49.448;8.612;2023-09-07T15:34:10;6.10;;;3.05;;
1106;SDS011;540;49.448;8.612;2023-09-07T15:36:38;4.55;;;2.80;;
1106;SDS011;540;49.448;8.612;2023-09-07T15:39:06;4.38;;;2.95;;
1106;SDS011;540;49.448;8.612;2023-09-07T15:41:34;4.13;;;2.90;;
1106;SDS011;540;49.448;8.612;2023-09-07T15:44:02;3.67;;;3.10;;
1106;SDS011;540;49.448;8.612;2023-09-07T15:46:31;3.83;;;3.40;;
1106;SDS011;540;49.448;8.612;2023-09-07T15:49:00;4.32;;;2.47;;